createdAt,value
2018-04-25T00:01:02.266Z,5.43
2018-04-25T00:03:29.843Z,5.73
2018-04-25T00:05:57.370Z,5.57
2018-04-25T00:08:25.002Z,5.77
2018-04-25T00:10:52.521Z,6.10
2018-04-25T00:13:20.078Z,6.07
2018-04-25T00:15:47.630Z,5.70
2018-04-25T00:18:15.206Z,6.20
2018-04-25T00:20:42.733Z,5.47
2018-04-25T00:23:10.363Z,5.53
2018-04-25T00:25:37.943Z,6.00
2018-04-25T00:28:05.471Z,5.53
2018-04-25T00:33:07.973Z,6.20
2018-04-25T00:35:35.526Z,6.07
2018-04-25T00:38:03.054Z,6.55
2018-04-25T00:40:30.602Z,7.47
2018-04-25T00:42:58.191Z,8.37
2018-04-25T00:45:25.866Z,7.30
2018-04-25T00:47:53.397Z,6.97
2018-04-25T00:50:20.935Z,8.17
2018-04-25T00:52:48.540Z,8.10
2018-04-25T00:55:16.203Z,7.93
2018-04-25T00:57:43.823Z,8.40
2018-04-25T01:00:11.393Z,8.20
2018-04-25T01:02:39.000Z,7.90
2018-04-25T01:05:06.526Z,9.70
2018-04-25T01:07:34.176Z,9.17
2018-04-25T01:10:01.774Z,9.23
2018-04-25T01:12:29.458Z,8.27
2018-04-25T01:14:57.083Z,8.70
2018-04-25T01:17:24.748Z,10.00
2018-04-25T01:19:52.313Z,9.77
2018-04-25T01:22:19.846Z,9.77
2018-04-25T01:24:47.420Z,10.03
2018-04-25T01:27:14.984Z,9.35
2018-04-25T01:29:43.374Z,9.68
2018-04-25T01:32:10.922Z,9.33
2018-04-25T01:34:42.278Z,10.67
2018-04-25T01:37:20.729Z,10.50
2018-04-25T01:39:52.654Z,10.35
2018-04-25T01:42:24.066Z,10.13
2018-04-25T01:44:58.411Z,10.70
2018-04-25T01:47:27.792Z,10.40
2018-04-25T01:53:10.143Z,10.60
2018-04-25T01:55:49.493Z,10.20
2018-04-25T01:58:28.915Z,10.50
2018-04-25T02:01:08.174Z,11.43
2018-04-25T02:03:45.447Z,10.33
2018-04-25T02:06:13.034Z,9.60
2018-04-25T02:08:40.657Z,10.35
2018-04-25T02:11:08.258Z,10.40
2018-04-25T02:13:35.808Z,10.67
2018-04-25T02:16:03.436Z,10.57
2018-04-25T02:18:36.063Z,9.87
2018-04-25T02:21:03.675Z,10.67
2018-04-25T02:23:31.217Z,10.13
2018-04-25T02:25:58.914Z,10.07
2018-04-25T02:28:26.443Z,10.70
2018-04-25T02:30:54.008Z,9.80
2018-04-25T02:33:21.530Z,10.05
2018-04-25T02:35:49.398Z,10.05
2018-04-25T02:38:17.001Z,10.47
2018-04-25T02:40:44.579Z,9.43
2018-04-25T02:43:12.231Z,9.85
2018-04-25T02:45:39.798Z,10.67
2018-04-25T02:48:07.391Z,9.83
2018-04-25T02:50:35.296Z,10.52
2018-04-25T02:53:02.860Z,11.50
2018-04-25T02:55:30.434Z,11.67
2018-04-25T02:57:58.000Z,10.47
2018-04-25T03:00:25.553Z,11.73
2018-04-25T03:02:53.153Z,11.30
2018-04-25T03:05:20.683Z,11.03
2018-04-25T03:07:48.238Z,12.13
2018-04-25T03:10:15.762Z,12.10
2018-04-25T03:12:43.344Z,11.93
2018-04-25T03:15:10.916Z,12.07
2018-04-25T03:17:38.470Z,11.40
2018-04-25T03:20:05.989Z,11.47
2018-04-25T03:22:33.629Z,11.60
2018-04-25T03:25:01.102Z,10.83
2018-04-25T03:27:28.676Z,10.40
2018-04-25T03:29:56.206Z,11.53
2018-04-25T03:32:23.781Z,11.20
2018-04-25T03:34:51.332Z,12.52
2018-04-25T03:37:18.914Z,12.63
2018-04-25T03:39:46.437Z,11.73
2018-04-25T03:42:14.009Z,12.63
2018-04-25T03:44:41.542Z,12.23
2018-04-25T03:47:09.122Z,11.83
2018-04-25T03:49:36.649Z,12.40
2018-04-25T03:52:04.256Z,12.77
2018-04-25T03:54:31.799Z,12.67
2018-04-25T03:56:59.330Z,11.70
2018-04-25T03:59:26.900Z,11.40
2018-04-25T04:01:54.455Z,11.97
2018-04-25T04:04:22.010Z,10.85
2018-04-25T04:06:49.543Z,11.23
2018-04-25T04:09:17.144Z,11.60
2018-04-25T04:11:44.666Z,10.70
2018-04-25T04:14:15.520Z,10.88
2018-04-25T04:16:43.237Z,10.90
2018-04-25T04:19:10.826Z,10.18
2018-04-25T04:21:38.372Z,10.15
2018-04-25T04:24:06.571Z,9.93
2018-04-25T04:26:34.131Z,10.57
2018-04-25T04:29:01.709Z,10.67
2018-04-25T04:31:29.232Z,9.53
2018-04-25T04:33:56.796Z,10.10
2018-04-25T04:36:24.336Z,10.02
2018-04-25T04:38:51.917Z,9.10
2018-04-25T04:41:19.487Z,9.80
2018-04-25T04:43:47.070Z,10.13
2018-04-25T04:46:14.681Z,9.70
2018-04-25T04:48:42.248Z,10.47
2018-04-25T04:51:09.815Z,10.30
2018-04-25T04:53:37.430Z,11.30
2018-04-25T04:56:04.955Z,10.33
2018-04-25T04:58:32.697Z,10.97
2018-04-25T05:01:00.210Z,10.53
2018-04-25T05:03:27.763Z,10.40
2018-04-25T05:05:55.366Z,11.12
2018-04-25T05:08:23.111Z,10.57
2018-04-25T05:10:50.668Z,10.17
2018-04-25T05:13:18.222Z,10.27
2018-04-25T05:15:45.775Z,11.77
2018-04-25T05:18:13.327Z,10.93
2018-04-25T05:20:40.938Z,10.80
2018-04-25T05:23:08.530Z,11.00
2018-04-25T05:25:36.080Z,10.98
2018-04-25T05:28:03.837Z,11.00
2018-04-25T05:30:31.666Z,11.47
2018-04-25T05:32:59.587Z,12.63
2018-04-25T05:35:27.165Z,11.63
2018-04-25T05:37:54.693Z,14.87
2018-04-25T05:40:23.598Z,11.53
2018-04-25T05:42:51.219Z,8.90
2018-04-25T05:45:18.753Z,8.57
2018-04-25T05:47:46.269Z,8.87
2018-04-25T05:50:13.830Z,7.78
2018-04-25T05:52:41.355Z,8.40
2018-04-25T05:55:08.906Z,8.03
2018-04-25T05:57:36.447Z,9.10
2018-04-25T06:00:04.059Z,8.43
2018-04-25T06:02:31.638Z,8.20
2018-04-25T06:04:59.186Z,8.90
2018-04-25T06:07:26.750Z,8.60
2018-04-25T06:09:54.645Z,10.17
2018-04-25T06:12:22.239Z,8.27
2018-04-25T06:14:49.750Z,8.93
2018-04-25T06:17:17.279Z,8.60
2018-04-25T06:19:44.935Z,9.20
2018-04-25T06:22:12.405Z,9.77
2018-04-25T06:24:39.961Z,9.63
2018-04-25T06:27:07.905Z,9.67
2018-04-25T06:29:35.467Z,9.53
2018-04-25T06:32:03.024Z,9.10
2018-04-25T06:34:30.638Z,10.23
2018-04-25T06:36:58.228Z,10.93
2018-04-25T06:39:25.931Z,11.47
2018-04-25T06:41:55.560Z,10.63
2018-04-25T06:44:24.914Z,12.20
2018-04-25T06:46:52.476Z,12.10
2018-04-25T06:49:20.052Z,12.93
2018-04-25T06:51:47.709Z,11.76
2018-04-25T06:54:15.290Z,11.97
2018-04-25T06:56:42.857Z,11.90
2018-04-25T06:59:10.478Z,12.33
2018-04-25T07:01:38.734Z,14.00
2018-04-25T07:04:06.322Z,13.13
2018-04-25T07:06:33.871Z,14.37
2018-04-25T07:09:01.427Z,13.37
2018-04-25T07:11:29.002Z,13.70
2018-04-25T07:13:56.527Z,13.73
2018-04-25T07:16:24.227Z,14.30
2018-04-25T07:18:51.760Z,14.57
2018-04-25T07:21:19.335Z,14.87
2018-04-25T07:23:46.906Z,14.10
2018-04-25T07:26:15.092Z,15.57
2018-04-25T07:28:42.703Z,14.77
2018-04-25T07:31:10.589Z,15.40
2018-04-25T07:33:38.975Z,14.63
2018-04-25T07:36:06.556Z,15.27
2018-04-25T07:38:34.103Z,14.80
2018-04-25T07:41:01.661Z,15.43
2018-04-25T07:43:29.207Z,16.27
2018-04-25T07:45:56.778Z,15.33
2018-04-25T07:48:24.309Z,15.83
2018-04-25T07:50:51.865Z,16.27
2018-04-25T07:53:19.447Z,16.70
2018-04-25T07:55:47.017Z,17.10
2018-04-25T07:58:14.569Z,16.73
2018-04-25T08:00:42.227Z,18.43
2018-04-25T08:03:09.888Z,16.80
2018-04-25T08:05:37.446Z,16.87
2018-04-25T08:08:04.977Z,18.40
2018-04-25T08:10:32.554Z,18.23
2018-04-25T08:13:11.849Z,17.70
2018-04-25T08:15:51.340Z,18.70
2018-04-25T08:18:30.735Z,19.90
2018-04-25T08:24:11.919Z,18.37
2018-04-25T08:26:39.495Z,18.00
2018-04-25T08:29:07.098Z,18.33
2018-04-25T08:31:35.073Z,18.57
2018-04-25T08:34:03.350Z,18.50
2018-04-25T08:36:31.322Z,18.73
2018-04-25T08:38:58.871Z,18.00
2018-04-25T08:41:27.232Z,18.43
2018-04-25T08:43:57.503Z,19.53
2018-04-25T08:46:25.337Z,19.03
2018-04-25T08:48:53.139Z,19.37
2018-04-25T08:51:23.187Z,19.45
2018-04-25T08:53:50.918Z,18.70
2018-04-25T08:56:19.621Z,18.50
2018-04-25T08:58:49.173Z,18.67
2018-04-25T09:01:16.860Z,16.27
2018-04-25T09:03:44.493Z,16.52
2018-04-25T09:06:13.695Z,16.10
2018-04-25T09:08:43.077Z,16.40
2018-04-25T09:11:10.952Z,15.30
2018-04-25T09:13:39.813Z,13.90
2018-04-25T09:16:08.164Z,15.10
2018-04-25T09:18:38.200Z,13.47
2018-04-25T09:21:06.143Z,13.77
2018-04-25T09:23:33.997Z,14.17
2018-04-25T09:26:01.573Z,13.63
2018-04-25T09:28:29.102Z,14.30
2018-04-25T09:30:56.649Z,13.73
2018-04-25T09:33:24.514Z,13.50
2018-04-25T09:35:52.053Z,13.32
2018-04-25T09:38:20.158Z,11.93
2018-04-25T09:40:48.013Z,11.68
2018-04-25T09:43:18.561Z,11.77
2018-04-25T09:45:46.601Z,11.95
2018-04-25T09:48:19.737Z,10.88
2018-04-25T09:50:47.831Z,11.83
2018-04-25T09:53:15.421Z,9.50
2018-04-25T09:55:43.327Z,9.40
2018-04-25T09:58:10.893Z,10.30
2018-04-25T10:00:44.080Z,9.43
2018-04-25T10:03:17.630Z,10.77
2018-04-25T10:05:45.234Z,9.43
2018-04-25T10:08:12.890Z,9.43
2018-04-25T10:10:40.484Z,9.10
2018-04-25T10:13:11.398Z,8.77
2018-04-25T10:15:39.662Z,7.37
2018-04-25T10:18:07.221Z,7.47
2018-04-25T10:20:38.395Z,7.40
2018-04-25T10:23:06.227Z,7.13
2018-04-25T10:25:34.046Z,6.27
2018-04-25T10:28:03.420Z,6.30
2018-04-25T10:30:32.935Z,5.83
2018-04-25T10:33:02.512Z,6.13
2018-04-25T10:35:30.994Z,6.33
2018-04-25T10:37:58.536Z,5.83
2018-04-25T10:40:28.325Z,5.40
2018-04-25T10:42:56.419Z,5.50
2018-04-25T10:45:23.964Z,5.63
2018-04-25T10:47:51.538Z,6.05
2018-04-25T10:50:19.108Z,6.67
2018-04-25T10:52:47.081Z,5.68
2018-04-25T10:55:14.799Z,5.33
2018-04-25T10:57:42.558Z,5.70
2018-04-25T11:00:10.148Z,4.63
2018-04-25T11:02:37.766Z,4.17
2018-04-25T11:05:05.356Z,4.90
2018-04-25T11:07:32.910Z,4.90
2018-04-25T11:10:00.443Z,4.70
2018-04-25T11:12:27.994Z,3.63
2018-04-25T11:14:55.520Z,4.00
2018-04-25T11:17:23.085Z,3.80
2018-04-25T11:19:50.625Z,3.17
2018-04-25T11:22:18.201Z,3.13
2018-04-25T11:24:45.715Z,4.20
2018-04-25T11:27:13.253Z,4.37
2018-04-25T11:29:40.880Z,4.83
2018-04-25T11:32:08.438Z,4.43
2018-04-25T11:34:35.986Z,4.50
2018-04-25T11:37:03.508Z,4.10
2018-04-25T11:39:31.067Z,4.53
2018-04-25T11:41:58.620Z,4.63
2018-04-25T11:44:31.048Z,4.72
2018-04-25T11:47:01.220Z,3.73
2018-04-25T11:49:28.812Z,3.93
2018-04-25T11:51:57.146Z,3.80
2018-04-25T11:54:25.033Z,3.70
2018-04-25T11:56:52.557Z,3.73
2018-04-25T11:59:20.110Z,3.40
2018-04-25T12:01:47.639Z,3.07
2018-04-25T12:04:15.214Z,3.50
2018-04-25T12:06:42.747Z,4.20
2018-04-25T12:09:10.339Z,3.10
2018-04-25T12:11:37.893Z,3.63
2018-04-25T12:14:05.445Z,4.17
2018-04-25T12:16:33.000Z,3.93
2018-04-25T12:19:00.597Z,4.43
2018-04-25T12:21:28.133Z,4.50
2018-04-25T12:23:55.685Z,5.30
2018-04-25T12:26:23.246Z,5.12
2018-04-25T12:28:50.914Z,4.47
2018-04-25T12:31:18.637Z,4.53
2018-04-25T12:33:46.236Z,4.27
2018-04-25T12:36:13.968Z,6.80
2018-04-25T12:38:43.278Z,5.10
2018-04-25T12:41:11.273Z,4.15
2018-04-25T12:43:40.153Z,4.83
2018-04-25T12:46:08.502Z,5.77
2018-04-25T12:48:38.253Z,6.07
2018-04-25T12:51:08.156Z,7.60
2018-04-25T12:53:36.710Z,6.70
2018-04-25T12:56:04.387Z,5.43
2018-04-25T12:58:32.132Z,6.77
2018-04-25T13:01:00.667Z,9.37
2018-04-25T13:03:28.929Z,8.63
2018-04-25T13:05:57.195Z,11.07
2018-04-25T13:08:25.162Z,8.07
2018-04-25T13:10:53.250Z,7.60
2018-04-25T13:13:24.925Z,4.83
2018-04-25T13:15:53.443Z,5.67
2018-04-25T13:18:21.181Z,4.97
2018-04-25T13:20:48.738Z,5.47
2018-04-25T13:23:16.337Z,8.23
2018-04-25T13:25:44.361Z,5.50
2018-04-25T13:28:17.543Z,5.53
2018-04-25T13:30:46.470Z,4.30
2018-04-25T13:33:16.717Z,4.00
2018-04-25T13:35:47.175Z,4.13
2018-04-25T13:38:14.739Z,3.20
2018-04-25T13:40:44.801Z,4.23
2018-04-25T13:43:17.157Z,4.23
2018-04-25T13:45:45.693Z,3.77
2018-04-25T13:48:13.851Z,3.67
2018-04-25T13:50:43.372Z,4.00
2018-04-25T13:53:11.911Z,3.23
2018-04-25T13:55:41.093Z,3.40
2018-04-25T13:58:11.693Z,2.67
2018-04-25T14:00:44.002Z,2.50
2018-04-25T14:03:13.142Z,2.43
2018-04-25T14:05:42.059Z,2.60
2018-04-25T14:08:11.963Z,2.70
2018-04-25T14:10:40.127Z,2.37
2018-04-25T14:13:08.562Z,2.67
2018-04-25T14:15:36.726Z,2.07
2018-04-25T14:18:04.525Z,3.47
2018-04-25T14:20:33.062Z,3.13
2018-04-25T14:23:01.507Z,4.50
2018-04-25T14:25:29.133Z,2.93
2018-04-25T14:27:56.642Z,2.20
2018-04-25T14:30:24.285Z,2.40
2018-04-25T14:32:52.321Z,2.30
2018-04-25T14:35:21.342Z,2.43
2018-04-25T14:37:50.437Z,1.97
2018-04-25T14:40:18.326Z,2.10
2018-04-25T14:42:45.857Z,1.63
2018-04-25T14:45:13.405Z,2.07
2018-04-25T14:47:41.961Z,1.97
2018-04-25T14:50:10.542Z,2.50
2018-04-25T14:52:38.158Z,2.37
2018-04-25T14:55:05.721Z,2.28
2018-04-25T14:57:33.242Z,2.27
2018-04-25T15:00:00.948Z,2.80
2018-04-25T15:02:28.500Z,3.07
2018-04-25T15:04:56.150Z,2.57
2018-04-25T15:07:23.720Z,3.30
2018-04-25T15:09:51.284Z,2.97
2018-04-25T15:12:18.833Z,3.05
2018-04-25T15:14:46.366Z,3.00
2018-04-25T15:17:13.943Z,3.58
2018-04-25T15:19:41.493Z,3.77
2018-04-25T15:22:09.075Z,2.83
2018-04-25T15:24:36.737Z,3.57
2018-04-25T15:27:04.504Z,3.20
2018-04-25T15:29:33.184Z,4.27
2018-04-25T15:32:00.848Z,3.92
2018-04-25T15:34:28.413Z,3.83
2018-04-25T15:36:56.079Z,6.47
2018-04-25T15:39:26.403Z,5.20
2018-04-25T15:41:56.177Z,4.33
2018-04-25T15:44:24.726Z,4.47
2018-04-25T15:46:52.432Z,4.33
2018-04-25T15:49:20.216Z,4.53
2018-04-25T15:51:48.006Z,5.67
2018-04-25T15:54:17.454Z,5.17
2018-04-25T15:56:47.458Z,5.30
2018-04-25T15:59:15.163Z,5.60
2018-04-25T16:01:45.464Z,6.47
2018-04-25T16:04:14.055Z,6.33
2018-04-25T16:06:45.263Z,5.87
2018-04-25T16:09:14.367Z,6.57
2018-04-25T16:11:41.878Z,6.20
2018-04-25T16:14:11.565Z,7.00
2018-04-25T16:16:40.166Z,6.50
2018-04-25T16:19:08.494Z,5.40
2018-04-25T16:21:36.004Z,5.90
2018-04-25T16:24:05.522Z,6.90
2018-04-25T16:26:34.175Z,6.63
2018-04-25T16:29:01.725Z,6.20
2018-04-25T16:31:32.559Z,6.13
2018-04-25T16:34:02.725Z,6.43
2018-04-25T16:36:30.791Z,5.78
2018-04-25T16:38:59.085Z,6.25
2018-04-25T16:41:28.950Z,5.40
2018-04-25T16:43:56.620Z,5.47
2018-04-25T16:46:25.602Z,6.33
2018-04-25T16:48:56.673Z,5.67
2018-04-25T16:51:27.045Z,5.03
2018-04-25T16:53:57.017Z,4.20
2018-04-25T16:56:24.556Z,3.83
2018-04-25T16:58:53.354Z,3.60
2018-04-25T17:01:22.305Z,3.20
2018-04-25T17:03:52.003Z,3.87
2018-04-25T17:06:19.848Z,3.30
2018-04-25T17:08:47.911Z,2.97
2018-04-25T17:11:16.974Z,3.30
2018-04-25T17:13:46.482Z,3.00
2018-04-25T17:16:18.652Z,3.50
2018-04-25T17:18:49.285Z,3.67
2018-04-25T17:21:17.981Z,3.50
2018-04-25T17:23:46.670Z,3.57
2018-04-25T17:26:15.490Z,3.17
2018-04-25T17:28:44.494Z,3.87
2018-04-25T17:31:14.542Z,3.83
2018-04-25T17:33:42.862Z,4.20
2018-04-25T17:36:10.717Z,4.40
2018-04-25T17:38:38.441Z,4.50
2018-04-25T17:41:06.314Z,4.10
2018-04-25T17:43:34.178Z,4.97
2018-04-25T17:46:02.917Z,5.33
2018-04-25T17:48:30.821Z,4.03
2018-04-25T17:51:00.377Z,4.50
2018-04-25T17:53:31.037Z,4.60
2018-04-25T17:55:58.656Z,3.87
2018-04-25T17:58:26.334Z,3.83
2018-04-25T18:00:54.139Z,4.00
2018-04-25T18:03:21.740Z,3.90
2018-04-25T18:05:49.264Z,3.92
2018-04-25T18:08:16.812Z,3.90
2018-04-25T18:10:44.367Z,3.73
2018-04-25T18:13:11.898Z,3.73
2018-04-25T18:15:39.822Z,4.37
2018-04-25T18:18:07.375Z,4.23
2018-04-25T18:20:34.932Z,4.87
2018-04-25T18:23:02.453Z,4.57
2018-04-25T18:25:30.000Z,4.90
2018-04-25T18:27:57.534Z,5.53
2018-04-25T18:30:25.142Z,4.47
2018-04-25T18:32:52.663Z,5.15
2018-04-25T18:35:20.214Z,5.23
2018-04-25T18:37:47.725Z,5.10
2018-04-25T18:40:15.270Z,5.77
2018-04-25T18:42:43.347Z,5.45
2018-04-25T18:45:11.119Z,4.90
2018-04-25T18:47:38.654Z,4.67
2018-04-25T18:50:06.213Z,4.67
2018-04-25T18:52:33.762Z,4.77
2018-04-25T18:55:02.240Z,5.10
2018-04-25T18:57:30.092Z,4.15
2018-04-25T19:00:09.812Z,4.17
2018-04-25T19:02:37.339Z,4.07
2018-04-25T19:05:04.963Z,3.90
2018-04-25T19:07:32.621Z,4.63
2018-04-25T19:10:00.227Z,5.00
2018-04-25T19:12:27.723Z,4.10
2018-04-25T19:14:55.402Z,4.68
2018-04-25T19:17:22.975Z,4.10
2018-04-25T19:19:51.531Z,5.15
2018-04-25T19:22:19.850Z,5.23
2018-04-25T19:24:47.484Z,5.63
2018-04-25T19:27:15.026Z,6.10
2018-04-25T19:29:43.461Z,5.93
2018-04-25T19:32:11.023Z,5.87
2018-04-25T19:34:38.643Z,5.83
2018-04-25T19:37:06.215Z,6.03
2018-04-25T19:39:33.754Z,5.67
2018-04-25T19:42:01.318Z,5.53
2018-04-25T19:44:28.876Z,5.90
2018-04-25T19:46:56.433Z,5.75
2018-04-25T19:49:24.001Z,5.27
2018-04-25T19:51:51.546Z,6.25
2018-04-25T19:54:21.861Z,5.80
2018-04-25T19:56:49.563Z,5.80
2018-04-25T19:59:17.166Z,5.80
2018-04-25T20:01:45.763Z,5.87
2018-04-25T20:04:15.289Z,6.47
2018-04-25T20:06:43.651Z,5.50
2018-04-25T20:09:11.229Z,6.17
2018-04-25T20:11:38.793Z,6.70
2018-04-25T20:14:06.346Z,6.20
2018-04-25T20:16:33.904Z,28.23
2018-04-25T20:19:01.463Z,5.95
2018-04-25T20:21:29.087Z,6.10
2018-04-25T20:23:56.703Z,6.07
2018-04-25T20:26:24.349Z,5.40
2018-04-25T20:28:51.888Z,6.50
2018-04-25T20:31:19.446Z,6.93
2018-04-25T20:33:46.973Z,5.70
2018-04-25T20:36:14.606Z,6.73
2018-04-25T20:38:42.254Z,6.90
2018-04-25T20:41:09.807Z,7.33
2018-04-25T20:43:37.415Z,7.73
2018-04-25T20:46:05.032Z,7.33
2018-04-25T20:48:32.760Z,8.43
2018-04-25T20:51:00.462Z,9.27
2018-04-25T20:53:28.016Z,8.30
2018-04-25T20:55:57.042Z,8.70
2018-04-25T20:58:24.615Z,8.27
2018-04-25T21:00:52.151Z,8.50
2018-04-25T21:03:21.425Z,8.08
2018-04-25T21:05:49.101Z,9.20
2018-04-25T21:08:17.007Z,9.07
2018-04-25T21:10:45.495Z,9.67
2018-04-25T21:13:14.533Z,9.65
2018-04-25T21:15:42.485Z,9.20
2018-04-25T21:18:10.860Z,10.10
2018-04-25T21:20:40.965Z,9.40
2018-04-25T21:23:08.798Z,10.75
2018-04-25T21:25:36.317Z,9.53
2018-04-25T21:28:03.940Z,8.87
2018-04-25T21:30:35.176Z,9.32
2018-04-25T21:33:03.501Z,9.83
2018-04-25T21:35:31.162Z,9.40
2018-04-25T21:37:58.729Z,11.02
2018-04-25T21:40:26.269Z,9.43
2018-04-25T21:42:53.838Z,9.33
2018-04-25T21:45:23.059Z,9.27
2018-04-25T21:47:52.829Z,9.70
2018-04-25T21:50:21.659Z,10.20
2018-04-25T21:52:49.312Z,9.70
2018-04-25T21:55:19.941Z,9.10
2018-04-25T21:57:47.834Z,8.87
2018-04-25T22:00:15.725Z,9.67
2018-04-25T22:02:44.145Z,10.93
2018-04-25T22:05:11.685Z,10.90
2018-04-25T22:07:39.367Z,11.10
2018-04-25T22:10:06.884Z,12.33
2018-04-25T22:12:34.467Z,11.03
2018-04-25T22:15:02.052Z,11.90
2018-04-25T22:17:29.589Z,13.37
2018-04-25T22:19:58.709Z,12.57
2018-04-25T22:22:26.567Z,12.93
2018-04-25T22:24:55.353Z,14.00
2018-04-25T22:27:23.809Z,13.10
2018-04-25T22:29:51.850Z,16.10
2018-04-25T22:32:20.456Z,17.33
2018-04-25T22:34:50.112Z,15.45
2018-04-25T22:37:17.687Z,17.67
2018-04-25T22:39:45.239Z,16.67
2018-04-25T22:42:12.813Z,13.80
2018-04-25T22:44:40.358Z,14.60
2018-04-25T22:47:07.998Z,14.35
2018-04-25T22:49:39.338Z,14.50
2018-04-25T22:52:10.993Z,13.87
2018-04-25T22:54:41.975Z,14.97
2018-04-25T22:57:10.854Z,13.63
2018-04-25T22:59:38.426Z,13.30
2018-04-25T23:02:06.049Z,11.43
2018-04-25T23:04:34.181Z,12.90
2018-04-25T23:07:01.736Z,12.83
2018-04-25T23:09:29.445Z,12.73
2018-04-25T23:11:57.055Z,11.60
2018-04-25T23:14:24.666Z,12.07
2018-04-25T23:16:52.195Z,11.27
2018-04-25T23:19:19.771Z,9.27
2018-04-25T23:21:47.298Z,9.43
2018-04-25T23:24:14.873Z,9.87
2018-04-25T23:26:42.462Z,10.63
2018-04-25T23:29:10.129Z,8.63
2018-04-25T23:31:37.684Z,10.20
2018-04-25T23:34:05.235Z,11.03
2018-04-25T23:36:32.802Z,9.33
2018-04-25T23:39:00.468Z,9.23
2018-04-25T23:41:27.990Z,9.20
2018-04-25T23:43:55.543Z,7.90
2018-04-25T23:46:23.068Z,8.70
2018-04-25T23:48:50.622Z,7.95
2018-04-25T23:51:18.272Z,8.05
2018-04-25T23:53:45.848Z,8.57
2018-04-25T23:56:14.276Z,8.80
2018-04-25T23:58:41.809Z,9.00
